Time;durP1;ratioP1;P1;durP2;ratioP2;P2;SDS_P1;SDS_P2;PMS_P1;PMS_P2;Temp;Humidity;BMP_temperature;BMP_pressure;BME280_temperature;BME280_humidity;BME280_pressure;Samples;Min_cycle;Max_cycle;Signal;HPM_P1;HPM_P2
2022/07/05 00:01:05;;;;;;;4.97;1.50;;;25.80;75.20;;;;;;5045573;28;20457;-76
2022/07/05 00:03:31;;;;;;;5.50;1.23;;;25.90;74.90;;;;;;5046338;28;20032;-76
2022/07/05 00:05:57;;;;;;;3.78;1.08;;;25.90;74.50;;;;;;5032701;28;20042;-76
2022/07/05 00:08:23;;;;;;;1.25;1.15;;;25.80;75.00;;;;;;5049142;28;20036;-76
2022/07/05 00:10:49;;;;;;;1.38;1.13;;;25.80;74.50;;;;;;5046377;28;20111;-75
2022/07/05 00:13:14;;;;;;;3.25;1.10;;;25.70;75.00;;;;;;5049299;28;20037;-75
2022/07/05 00:15:41;;;;;;;3.10;1.38;;;25.60;75.10;;;;;;5042378;28;20675;-75
2022/07/05 00:18:07;;;;;;;3.00;1.10;;;25.60;75.50;;;;;;5047417;28;20746;-74
2022/07/05 00:20:32;;;;;;;1.88;1.23;;;25.60;76.20;;;;;;5034257;28;20036;-73
2022/07/05 00:22:58;;;;;;;1.20;1.10;;;25.50;77.00;;;;;;5025073;28;20033;-76
2022/07/05 00:25:24;;;;;;;1.92;1.40;;;25.40;74.30;;;;;;5044183;28;20333;-75
2022/07/05 00:27:49;;;;;;;4.20;1.20;;;25.40;75.10;;;;;;5052497;28;20110;-73
2022/07/05 00:30:15;;;;;;;2.25;1.25;;;25.40;75.00;;;;;;5047691;28;20027;-75
2022/07/05 00:32:41;;;;;;;1.38;1.27;;;25.40;75.50;;;;;;5049265;28;20106;-74
2022/07/05 00:35:07;;;;;;;4.38;1.08;;;25.40;75.30;;;;;;5046566;28;20175;-73
2022/07/05 00:37:33;;;;;;;1.42;1.10;;;25.40;75.40;;;;;;5051664;28;20055;-72
2022/07/05 00:39:59;;;;;;;2.05;1.20;;;25.20;76.00;;;;;;5044677;28;20032;-71
2022/07/05 00:42:24;;;;;;;1.30;0.80;;;25.00;76.90;;;;;;5051220;28;20744;-71
2022/07/05 00:44:50;;;;;;;6.07;1.00;;;24.90;77.30;;;;;;5049830;28;20048;-72
2022/07/05 00:47:16;;;;;;;2.53;0.95;;;24.80;77.10;;;;;;5046197;28;20029;-72
2022/07/05 00:49:42;;;;;;;1.13;1.02;;;24.90;76.70;;;;;;5048081;28;20544;-72
2022/07/05 00:52:09;;;;;;;6.22;1.10;;;25.00;76.40;;;;;;5047154;28;20523;-75
2022/07/05 00:54:37;;;;;;;1.92;1.15;;;25.10;76.60;;;;;;5046987;28;20071;-75
2022/07/05 00:57:03;;;;;;;1.67;1.33;;;25.10;77.10;;;;;;5043568;28;20048;-74
2022/07/05 00:59:29;;;;;;;3.92;1.30;;;25.00;77.80;;;;;;5041714;28;20024;-74
2022/07/05 01:01:55;;;;;;;2.03;1.10;;;24.90;78.20;;;;;;5048250;28;20037;-74
2022/07/05 01:04:21;;;;;;;2.78;1.17;;;24.90;78.20;;;;;;5047235;28;20480;-73
2022/07/05 01:06:49;;;;;;;1.48;0.85;;;25.00;78.30;;;;;;5049666;28;20127;-75
2022/07/05 01:09:17;;;;;;;2.25;0.93;;;25.00;78.90;;;;;;5046848;28;20028;-75
2022/07/05 01:11:44;;;;;;;2.97;1.10;;;24.90;79.30;;;;;;5049204;28;20067;-74
2022/07/05 01:14:12;;;;;;;2.17;1.05;;;24.90;79.90;;;;;;5026895;28;20063;-73
2022/07/05 01:16:38;;;;;;;1.73;1.10;;;24.70;80.80;;;;;;5051752;28;20040;-74
2022/07/05 01:19:08;;;;;;;1.52;1.08;;;24.60;81.70;;;;;;5049028;28;20060;-73
2022/07/05 01:21:43;;;;;;;1.88;1.25;;;24.40;83.10;;;;;;5050170;28;20060;-72
2022/07/05 01:24:10;;;;;;;2.60;1.20;;;24.20;83.70;;;;;;5048547;28;20222;-73
2022/07/05 01:26:37;;;;;;;3.25;1.10;;;24.20;84.00;;;;;;5052099;28;20044;-72
2022/07/05 01:29:03;;;;;;;1.95;1.20;;;24.20;84.50;;;;;;5047365;28;20193;-72
2022/07/05 01:31:29;;;;;;;2.25;1.00;;;24.30;84.10;;;;;;5033184;28;20077;-75
2022/07/05 01:33:55;;;;;;;2.58;1.08;;;24.30;84.40;;;;;;5050310;28;20481;-76
2022/07/05 01:36:21;;;;;;;1.40;1.05;;;24.40;84.70;;;;;;5050140;28;20051;-74
2022/07/05 01:38:46;;;;;;;1.90;1.30;;;24.40;85.00;;;;;;5055742;28;20477;-76
2022/07/05 01:41:12;;;;;;;3.15;1.30;;;24.40;85.30;;;;;;5051187;28;20072;-74
2022/07/05 01:43:38;;;;;;;2.83;1.10;;;24.30;85.90;;;;;;5038157;28;20132;-74
2022/07/05 01:46:05;;;;;;;5.50;1.10;;;24.40;85.90;;;;;;5045610;28;20047;-74
2022/07/05 01:48:34;;;;;;;1.67;1.55;;;24.40;85.80;;;;;;5042958;28;20035;-71
2022/07/05 01:51:10;;;;;;;6.43;1.33;;;24.50;85.50;;;;;;5050086;28;20136;-71
2022/07/05 01:53:39;;;;;;;2.25;1.13;;;24.60;86.30;;;;;;5049667;28;20040;-72
2022/07/05 01:56:05;;;;;;;5.88;1.23;;;24.60;86.40;;;;;;5042128;28;20288;-72
2022/07/05 01:58:31;;;;;;;1.77;1.13;;;24.60;86.50;;;;;;5047307;28;20091;-72
2022/07/05 02:00:58;;;;;;;3.88;1.30;;;24.60;86.90;;;;;;5049431;28;20045;-72
2022/07/05 02:03:25;;;;;;;2.70;1.00;;;24.60;87.20;;;;;;5047987;28;20668;-72
2022/07/05 02:05:52;;;;;;;1.98;1.20;;;24.60;87.20;;;;;;5047416;28;20044;-73
2022/07/05 02:08:18;;;;;;;3.60;1.10;;;24.50;87.80;;;;;;5031415;28;20056;-73
2022/07/05 02:10:44;;;;;;;1.67;0.90;;;24.40;88.20;;;;;;5043314;28;20046;-73
2022/07/05 02:13:11;;;;;;;2.88;1.10;;;24.40;88.70;;;;;;5043424;28;20048;-74
2022/07/05 02:15:40;;;;;;;1.30;1.00;;;24.40;87.70;;;;;;5039441;28;20053;-73
2022/07/05 02:18:07;;;;;;;2.30;1.10;;;24.30;87.60;;;;;;5047841;28;20047;-77
2022/07/05 02:20:33;;;;;;;1.02;1.00;;;24.30;87.30;;;;;;5048670;28;20032;-74
2022/07/05 02:22:59;;;;;;;5.53;1.25;;;24.30;83.50;;;;;;5048660;28;20048;-72
2022/07/05 02:25:25;;;;;;;1.25;1.15;;;24.50;82.40;;;;;;5044882;28;20227;-72
2022/07/05 02:27:52;;;;;;;4.45;1.25;;;24.70;80.60;;;;;;5047922;28;20056;-73
2022/07/05 02:30:18;;;;;;;5.43;1.15;;;24.90;82.20;;;;;;5043989;28;20508;-74
2022/07/05 02:32:44;;;;;;;10.80;1.73;;;24.90;82.20;;;;;;5041812;28;20646;-74
2022/07/05 02:35:10;;;;;;;3.17;0.98;;;24.90;83.20;;;;;;5043724;28;20044;-73
2022/07/05 02:37:39;;;;;;;3.75;1.25;;;24.90;83.00;;;;;;5046450;28;20045;-73
2022/07/05 02:40:11;;;;;;;1.30;1.13;;;24.90;81.10;;;;;;5031465;28;20432;-74
2022/07/05 02:42:38;;;;;;;3.65;1.38;;;24.90;81.20;;;;;;5046246;28;20043;-75
2022/07/05 02:45:05;;;;;;;0.98;0.85;;;25.00;81.20;;;;;;5047941;28;20115;-71
2022/07/05 02:47:32;;;;;;;4.03;1.08;;;25.10;81.40;;;;;;5029183;28;20468;-73
2022/07/05 02:49:58;;;;;;;1.27;1.10;;;24.90;83.80;;;;;;5043634;28;20174;-75
2022/07/05 02:52:25;;;;;;;1.85;1.20;;;24.70;86.30;;;;;;5044056;28;20918;-72
2022/07/05 02:54:50;;;;;;;2.70;1.00;;;24.60;87.00;;;;;;5049092;28;20708;-73
2022/07/05 02:57:16;;;;;;;1.95;1.10;;;24.60;87.30;;;;;;5036173;28;20041;-73
2022/07/05 02:59:41;;;;;;;5.70;1.30;;;24.50;87.40;;;;;;5049748;28;20040;-72
2022/07/05 03:02:07;;;;;;;6.68;1.35;;;24.50;88.00;;;;;;5042220;28;20032;-73
2022/07/05 03:04:33;;;;;;;1.88;1.10;;;24.40;89.20;;;;;;5047035;28;20493;-73
2022/07/05 03:06:58;;;;;;;7.13;1.30;;;24.30;89.90;;;;;;5039644;28;20971;-73
2022/07/05 03:09:24;;;;;;;3.20;1.15;;;24.20;90.20;;;;;;5032610;28;20051;-74
2022/07/05 03:11:49;;;;;;;1.17;0.90;;;24.30;90.50;;;;;;5047454;28;20437;-73
2022/07/05 03:14:15;;;;;;;4.05;1.10;;;24.30;90.20;;;;;;5045708;28;20037;-74
2022/07/05 03:16:42;;;;;;;4.80;1.02;;;24.20;90.20;;;;;;5042892;28;20115;-75
2022/07/05 03:19:08;;;;;;;1.33;1.15;;;24.10;90.60;;;;;;5046401;28;20033;-75
2022/07/05 03:21:34;;;;;;;3.85;1.20;;;24.10;91.20;;;;;;5042720;28;20041;-74
2022/07/05 03:23:59;;;;;;;1.92;1.00;;;24.10;91.70;;;;;;5041932;28;20494;-72
2022/07/05 03:26:25;;;;;;;2.00;1.13;;;24.10;91.50;;;;;;5046043;28;20040;-73
2022/07/05 03:28:51;;;;;;;2.67;1.55;;;24.10;91.40;;;;;;5050145;28;20047;-72
2022/07/05 03:31:16;;;;;;;1.95;0.90;;;24.10;91.40;;;;;;5049897;28;20043;-72
2022/07/05 03:33:42;;;;;;;2.33;1.38;;;24.10;91.50;;;;;;5051231;28;20048;-72
2022/07/05 03:36:08;;;;;;;3.25;1.27;;;24.20;91.60;;;;;;5044647;28;21233;-72
2022/07/05 03:38:34;;;;;;;1.20;0.90;;;24.20;91.50;;;;;;5045951;28;20037;-72
2022/07/05 03:41:00;;;;;;;2.03;1.23;;;24.30;91.90;;;;;;5049992;28;20120;-73
2022/07/05 03:43:25;;;;;;;1.42;1.20;;;24.10;92.20;;;;;;5049914;28;20724;-75
2022/07/05 03:45:51;;;;;;;2.28;1.20;;;24.10;92.50;;;;;;5048767;28;20103;-75
2022/07/05 03:48:16;;;;;;;1.30;1.20;;;24.10;92.70;;;;;;5048960;28;20041;-75
2022/07/05 03:50:42;;;;;;;6.88;1.70;;;24.00;92.80;;;;;;5050059;28;20105;-75
2022/07/05 03:53:08;;;;;;;1.70;1.17;;;23.90;93.00;;;;;;5047430;28;20051;-74
2022/07/05 03:55:33;;;;;;;3.33;1.30;;;23.90;93.40;;;;;;5042146;28;20208;-75
2022/07/05 03:57:59;;;;;;;5.95;1.10;;;23.80;93.70;;;;;;5049929;28;20120;-75
2022/07/05 04:00:24;;;;;;;1.27;1.17;;;23.90;94.00;;;;;;5046009;28;20043;-75
2022/07/05 04:02:50;;;;;;;3.72;1.30;;;23.90;94.00;;;;;;5044595;28;20141;-73
2022/07/05 04:05:16;;;;;;;3.17;1.50;;;23.90;94.10;;;;;;5048319;28;20056;-73
2022/07/05 04:07:55;;;;;;;2.40;1.30;;;23.90;94.40;;;;;;5048257;28;20045;-73
2022/07/05 04:10:22;;;;;;;1.70;1.20;;;24.00;94.70;;;;;;5045446;28;20040;-73
2022/07/05 04:12:47;;;;;;;3.15;1.30;;;24.10;94.10;;;;;;5044063;28;20447;-73
2022/07/05 04:15:14;;;;;;;3.45;1.40;;;24.10;94.30;;;;;;5047701;28;20038;-73
2022/07/05 04:17:54;;;;;;;2.75;1.08;;;24.10;94.70;;;;;;5047794;28;20063;-73
2022/07/05 04:20:21;;;;;;;1.48;1.00;;;24.00;95.10;;;;;;5046377;28;20033;-73
2022/07/05 04:22:48;;;;;;;3.33;1.30;;;24.00;95.00;;;;;;5046717;28;20116;-74
2022/07/05 04:25:17;;;;;;;3.55;1.10;;;24.00;95.50;;;;;;5046017;28;21011;-74
2022/07/05 04:27:44;;;;;;;2.63;1.25;;;24.00;96.10;;;;;;5047461;28;20128;-74
2022/07/05 04:30:10;;;;;;;2.15;1.08;;;23.90;96.00;;;;;;5027781;28;20071;-72
2022/07/05 04:32:36;;;;;;;2.92;1.08;;;23.90;96.40;;;;;;5045368;28;20541;-74
2022/07/05 04:35:02;;;;;;;4.53;1.50;;;24.00;96.20;;;;;;5043685;28;20101;-73
2022/07/05 04:37:27;;;;;;;5.22;1.40;;;24.10;95.80;;;;;;5048372;28;22346;-73
2022/07/05 04:39:53;;;;;;;4.95;1.38;;;24.20;95.40;;;;;;5051982;28;20094;-74
2022/07/05 04:42:19;;;;;;;1.35;1.05;;;24.20;95.40;;;;;;5037412;28;20078;-72
2022/07/05 04:44:44;;;;;;;10.05;1.48;;;24.30;96.10;;;;;;5041574;28;20120;-72
2022/07/05 04:47:10;;;;;;;5.80;1.23;;;24.30;96.30;;;;;;5048729;28;20036;-72
2022/07/05 04:49:36;;;;;;;4.57;1.40;;;24.40;96.10;;;;;;5049796;28;20045;-72
2022/07/05 04:52:01;;;;;;;5.55;1.25;;;24.40;96.10;;;;;;5055543;28;20045;-72
2022/07/05 04:54:27;;;;;;;1.20;1.10;;;24.50;95.50;;;;;;5050464;28;20277;-72
2022/07/05 04:56:52;;;;;;;2.35;1.13;;;24.50;95.70;;;;;;5050363;28;20481;-72
2022/07/05 04:59:18;;;;;;;2.53;1.15;;;24.50;96.00;;;;;;5048638;28;20036;-74
2022/07/05 05:01:44;;;;;;;1.40;1.30;;;24.60;96.60;;;;;;5051543;28;20041;-74
2022/07/05 05:04:10;;;;;;;3.83;1.15;;;24.60;96.70;;;;;;5041358;28;20035;-74
2022/07/05 05:06:35;;;;;;;2.30;1.05;;;24.60;96.10;;;;;;5050269;28;20047;-74
2022/07/05 05:09:01;;;;;;;20.40;1.80;;;24.60;96.10;;;;;;5055729;28;20036;-74
2022/07/05 05:11:27;;;;;;;4.65;1.38;;;24.70;96.00;;;;;;5049354;28;20056;-75
2022/07/05 05:13:53;;;;;;;2.33;1.30;;;24.70;96.60;;;;;;5047298;28;20033;-74
2022/07/05 05:16:18;;;;;;;4.80;1.70;;;24.40;96.70;;;;;;5045414;28;20497;-72
2022/07/05 05:18:44;;;;;;;5.47;1.52;;;24.40;96.80;;;;;;5045198;28;20728;-75
2022/07/05 05:21:10;;;;;;;5.15;1.60;;;24.40;97.00;;;;;;5038056;28;20760;-74
2022/07/05 05:23:35;;;;;;;3.22;1.60;;;24.40;97.00;;;;;;5036157;28;20041;-74
2022/07/05 05:26:01;;;;;;;4.97;1.40;;;24.50;96.60;;;;;;5052787;28;20032;-74
2022/07/05 05:28:26;;;;;;;3.08;1.30;;;24.60;97.30;;;;;;5051839;28;20161;-74
2022/07/05 05:30:52;;;;;;;26.35;2.08;;;24.60;97.20;;;;;;5051947;28;20132;-74
2022/07/05 05:33:18;;;;;;;4.43;1.40;;;24.70;97.80;;;;;;5052355;28;20047;-74
2022/07/05 05:35:43;;;;;;;4.00;1.60;;;24.80;97.70;;;;;;5052419;28;20033;-74
2022/07/05 05:38:09;;;;;;;3.38;1.30;;;24.80;96.90;;;;;;5052170;28;20044;-72
2022/07/05 05:40:37;;;;;;;4.90;1.05;;;24.90;96.70;;;;;;5045377;28;20033;-71
2022/07/05 05:43:03;;;;;;;5.35;1.70;;;24.90;96.10;;;;;;5054276;28;20116;-70
2022/07/05 05:45:29;;;;;;;2.75;1.38;;;25.00;95.80;;;;;;5052929;28;20048;-71
2022/07/05 05:47:57;;;;;;;3.55;1.17;;;25.00;95.40;;;;;;5049051;28;20516;-71
2022/07/05 05:50:25;;;;;;;2.53;1.30;;;25.10;96.40;;;;;;5051750;28;20041;-70
2022/07/05 05:52:51;;;;;;;8.70;1.60;;;25.10;97.00;;;;;;5048364;28;20044;-70
2022/07/05 05:55:17;;;;;;;5.53;1.45;;;25.10;97.50;;;;;;5054340;28;20055;-71
2022/07/05 05:57:43;;;;;;;6.82;1.48;;;25.00;98.20;;;;;;5051923;28;20055;-75
2022/07/05 06:00:09;;;;;;;8.27;1.30;;;25.00;98.50;;;;;;5038661;28;20037;-75
2022/07/05 06:02:35;;;;;;;5.35;1.13;;;24.90;98.50;;;;;;5050734;28;20132;-76
2022/07/05 06:05:01;;;;;;;4.85;1.40;;;24.90;98.50;;;;;;5051701;28;20346;-76
2022/07/05 06:07:26;;;;;;;1.73;1.20;;;24.80;98.20;;;;;;5045629;28;20579;-74
2022/07/05 06:09:52;;;;;;;6.75;1.10;;;24.80;96.80;;;;;;5048077;28;20029;-74
2022/07/05 06:12:18;;;;;;;3.30;1.23;;;24.80;95.10;;;;;;5050368;28;20037;-74
2022/07/05 06:14:43;;;;;;;1.00;1.00;;;24.80;94.70;;;;;;5057041;28;20033;-76
2022/07/05 06:17:09;;;;;;;1.20;1.10;;;24.70;94.20;;;;;;5042053;28;20087;-70
2022/07/05 06:19:35;;;;;;;1.67;1.30;;;24.70;94.20;;;;;;5052207;28;20025;-72
2022/07/05 06:22:01;;;;;;;6.25;1.70;;;24.70;94.10;;;;;;5055464;28;20447;-72
2022/07/05 06:24:26;;;;;;;1.38;1.30;;;24.60;94.00;;;;;;5054743;28;20109;-71
2022/07/05 06:26:52;;;;;;;3.20;1.40;;;24.60;93.10;;;;;;5049546;28;20049;-75
2022/07/05 06:29:17;;;;;;;6.07;1.60;;;24.60;93.10;;;;;;5050039;28;20064;-73
2022/07/05 06:31:43;;;;;;;3.88;1.50;;;24.60;92.70;;;;;;5044607;28;20209;-69
2022/07/05 06:34:09;;;;;;;2.67;1.48;;;24.60;92.10;;;;;;5045892;28;20585;-70
2022/07/05 06:36:34;;;;;;;3.08;1.55;;;24.70;92.10;;;;;;5050306;28;20112;-70
2022/07/05 06:39:00;;;;;;;1.73;1.63;;;24.70;91.70;;;;;;5052498;28;20049;-70
2022/07/05 06:41:26;;;;;;;1.67;1.52;;;24.70;91.40;;;;;;5048398;28;20032;-70
2022/07/05 06:43:52;;;;;;;3.53;1.40;;;24.70;92.00;;;;;;5048792;28;20029;-70
2022/07/05 06:46:18;;;;;;;2.47;1.60;;;24.80;91.80;;;;;;5026425;28;20553;-70
2022/07/05 06:48:44;;;;;;;4.03;1.17;;;24.80;91.90;;;;;;5049968;28;20048;-70
2022/07/05 06:51:10;;;;;;;11.63;2.60;;;24.90;91.60;;;;;;5047743;28;20037;-71
2022/07/05 06:53:36;;;;;;;1.25;1.10;;;24.90;92.00;;;;;;5045990;28;20072;-73
2022/07/05 06:56:02;;;;;;;1.13;1.00;;;24.90;91.90;;;;;;5050776;28;21087;-75
2022/07/05 06:58:27;;;;;;;1.38;1.10;;;25.00;92.10;;;;;;5048536;28;20036;-74
2022/07/05 07:00:53;;;;;;;1.85;0.90;;;24.90;91.80;;;;;;5050720;28;20449;-75
2022/07/05 07:03:19;;;;;;;0.95;0.95;;;25.00;91.60;;;;;;5046973;28;20062;-72
2022/07/05 07:05:44;;;;;;;1.70;0.98;;;25.00;92.00;;;;;;5051875;28;20048;-76
2022/07/05 07:10:54;;;;;;;5.28;0.80;;;24.90;90.70;;;;;;5049019;28;20047;-74
2022/07/05 07:13:20;;;;;;;1.27;0.70;;;24.90;91.50;;;;;;5045583;28;20037;-75
2022/07/05 07:15:47;;;;;;;1.15;1.05;;;24.90;91.90;;;;;;5041282;28;20529;-74
2022/07/05 07:18:14;;;;;;;1.15;1.05;;;25.00;91.80;;;;;;5053608;28;20041;-73
2022/07/05 07:20:39;;;;;;;1.90;0.80;;;25.10;91.80;;;;;;5047489;28;20032;-73
2022/07/05 07:23:05;;;;;;;3.63;0.90;;;25.20;91.70;;;;;;5050812;28;20032;-72
2022/07/05 07:25:31;;;;;;;1.27;0.90;;;25.10;91.40;;;;;;5047991;28;20448;-74
2022/07/05 07:27:56;;;;;;;5.88;1.30;;;25.10;92.00;;;;;;5046844;28;20396;-74
2022/07/05 07:30:24;;;;;;;1.10;0.90;;;25.10;92.50;;;;;;5051686;28;20431;-73
2022/07/05 07:32:50;;;;;;;1.40;0.85;;;25.10;92.40;;;;;;5045062;28;20036;-71
2022/07/05 07:35:16;;;;;;;2.30;0.80;;;25.10;92.40;;;;;;5036777;28;20047;-70
2022/07/05 07:37:42;;;;;;;0.82;0.80;;;25.10;92.40;;;;;;5044803;28;21821;-72
2022/07/05 07:40:08;;;;;;;0.88;0.85;;;25.20;92.30;;;;;;5039258;28;20039;-73
2022/07/05 07:42:34;;;;;;;1.00;0.80;;;25.10;91.70;;;;;;5042728;28;20048;-73
2022/07/05 07:45:03;;;;;;;1.35;0.70;;;25.20;92.10;;;;;;5024372;28;20092;-71
2022/07/05 07:47:30;;;;;;;1.20;1.10;;;25.10;92.00;;;;;;5033301;28;20604;-72
2022/07/05 07:49:55;;;;;;;2.25;0.77;;;25.10;91.70;;;;;;5048932;28;20033;-72
2022/07/05 07:52:21;;;;;;;1.50;0.80;;;25.10;92.00;;;;;;5046422;28;20161;-74
2022/07/05 07:54:46;;;;;;;1.58;0.90;;;25.10;91.50;;;;;;5040093;28;20033;-76
2022/07/05 07:57:12;;;;;;;2.88;0.80;;;25.10;91.70;;;;;;5046241;28;20044;-73
2022/07/05 07:59:38;;;;;;;0.70;0.70;;;25.00;91.70;;;;;;5046580;28;20085;-74
2022/07/05 08:02:04;;;;;;;1.45;0.80;;;24.90;91.70;;;;;;5047702;28;20063;-74
2022/07/05 08:04:29;;;;;;;2.10;0.60;;;24.90;91.50;;;;;;5047964;28;20161;-74
2022/07/05 08:06:55;;;;;;;0.77;0.68;;;24.90;91.80;;;;;;5049062;28;20052;-73
2022/07/05 08:09:21;;;;;;;1.90;1.00;;;24.90;91.60;;;;;;5032116;28;20473;-74
2022/07/05 08:11:47;;;;;;;1.27;0.73;;;24.90;91.70;;;;;;5039606;28;20265;-72
2022/07/05 08:14:17;;;;;;;2.47;0.70;;;24.90;91.30;;;;;;5046255;28;20056;-70
2022/07/05 08:16:43;;;;;;;1.17;0.90;;;24.90;91.30;;;;;;5023818;28;20102;-72
2022/07/05 08:21:53;;;;;;;1.67;0.80;;;25.00;91.60;;;;;;5047122;28;20048;-72
2022/07/05 08:24:18;;;;;;;0.70;0.70;;;25.10;91.80;;;;;;5050545;28;20390;-72
2022/07/05 08:26:44;;;;;;;0.90;0.60;;;25.20;91.50;;;;;;5048504;28;20115;-71
2022/07/05 08:29:13;;;;;;;6.20;1.77;;;25.40;91.30;;;;;;5043106;28;20048;-68
2022/07/05 08:31:44;;;;;;;1.25;1.00;;;25.50;91.20;;;;;;5031472;28;20036;-67
2022/07/05 08:34:11;;;;;;;;;;;25.60;91.00;;;;;;5045765;28;20040;-68
2022/07/05 08:36:37;;;;;;;7.80;2.05;;;25.80;90.40;;;;;;5046964;28;19916;-67
2022/07/05 08:39:04;;;;;;;2.80;0.90;;;25.80;90.40;;;;;;5042277;28;20044;-67
2022/07/05 08:41:32;;;;;;;2.35;0.80;;;26.00;89.60;;;;;;5042575;28;20048;-68
2022/07/05 08:43:59;;;;;;;1.05;0.70;;;26.10;88.30;;;;;;5048590;28;20029;-68
2022/07/05 08:46:27;;;;;;;3.38;1.30;;;26.10;88.70;;;;;;5023159;28;20095;-68
2022/07/05 08:48:55;;;;;;;0.70;0.70;;;26.20;90.00;;;;;;5052835;28;20040;-70
2022/07/05 08:51:22;;;;;;;0.85;0.63;;;26.30;88.40;;;;;;5048371;28;20067;-70
2022/07/05 08:53:49;;;;;;;1.75;0.70;;;26.20;86.60;;;;;;5048373;28;20052;-71
2022/07/05 08:56:16;;;;;;;0.73;0.70;;;26.30;87.10;;;;;;5043569;28;20410;-70
2022/07/05 08:58:41;;;;;;;0.95;0.85;;;26.30;87.30;;;;;;5047577;28;20388;-70
2022/07/05 09:01:09;;;;;;;0.70;0.70;;;26.40;87.40;;;;;;5044763;28;20040;-70
2022/07/05 09:03:49;;;;;;;3.33;0.88;;;26.50;87.40;;;;;;5042075;28;20060;-71
2022/07/05 09:06:37;;;;;;;0.75;0.75;;;26.60;86.60;;;;;;5047615;28;20056;-72
2022/07/05 09:09:03;;;;;;;0.80;0.80;;;26.50;84.70;;;;;;5044536;28;20040;-67
2022/07/05 09:11:41;;;;;;;2.28;1.00;;;26.60;85.40;;;;;;5046471;28;20056;-68
2022/07/05 09:14:28;;;;;;;1.80;0.80;;;26.70;86.10;;;;;;5048159;28;20032;-68
2022/07/05 09:16:53;;;;;;;0.80;0.80;;;26.60;84.80;;;;;;5045804;28;20489;-68
2022/07/05 09:19:19;;;;;;;2.47;1.33;;;26.60;84.80;;;;;;5028466;28;20047;-68
2022/07/05 09:21:45;;;;;;;1.52;0.85;;;26.70;85.30;;;;;;5048125;28;20577;-68
2022/07/05 09:24:12;;;;;;;1.23;0.98;;;26.60;86.10;;;;;;5039747;28;20037;-68
2022/07/05 09:26:42;;;;;;;1.10;0.73;;;26.70;86.60;;;;;;5025177;28;20745;-72
2022/07/05 09:29:16;;;;;;;1.17;1.08;;;26.70;85.90;;;;;;5028987;28;20045;-71
2022/07/05 09:31:48;;;;;;;1.75;1.05;;;26.70;83.90;;;;;;5041568;28;20079;-72
2022/07/05 09:34:19;;;;;;;1.70;1.00;;;26.70;84.40;;;;;;5048285;28;20128;-71
2022/07/05 09:37:01;;;;;;;2.20;0.82;;;26.70;85.80;;;;;;5026768;28;20973;-72
2022/07/05 09:39:30;;;;;;;1.77;1.00;;;26.80;83.00;;;;;;5050874;28;20051;-72
2022/07/05 09:42:25;;;;;;;0.75;0.70;;;26.90;83.20;;;;;;5048130;28;20041;-71
2022/07/05 09:44:53;;;;;;;6.82;1.10;;;27.00;83.70;;;;;;5049673;28;20043;-73
2022/07/05 09:47:21;;;;;;;1.15;0.90;;;26.90;81.40;;;;;;5044564;28;20119;-68
2022/07/05 09:49:48;;;;;;;0.60;0.60;;;26.90;80.60;;;;;;5047713;28;20071;-69
2022/07/05 09:52:34;;;;;;;0.60;0.60;;;26.70;80.80;;;;;;5050060;28;20045;-68
2022/07/05 09:55:11;;;;;;;0.88;0.80;;;26.70;81.90;;;;;;5051832;28;20131;-68
2022/07/05 09:57:39;;;;;;;7.40;1.00;;;26.60;80.90;;;;;;5043403;28;20052;-68
2022/07/05 10:00:16;;;;;;;2.88;0.85;;;26.50;82.30;;;;;;5048486;28;20079;-67
2022/07/05 10:02:47;;;;;;;2.00;0.70;;;26.50;82.00;;;;;;5049751;28;20018;-67
2022/07/05 10:05:32;;;;;;;1.00;0.63;;;26.60;83.30;;;;;;5028140;28;20201;-71
2022/07/05 10:07:59;;;;;;;2.15;0.80;;;26.70;82.30;;;;;;5046603;28;20067;-75
2022/07/05 10:10:32;;;;;;;1.85;0.70;;;26.70;83.50;;;;;;5013672;28;20052;-71
2022/07/05 10:12:59;;;;;;;1.30;1.02;;;26.60;82.30;;;;;;5049499;28;20127;-70
2022/07/05 10:15:27;;;;;;;0.63;0.60;;;26.60;83.40;;;;;;5048044;28;20029;-71
2022/07/05 10:18:08;;;;;;;1.30;0.98;;;26.50;83.70;;;;;;5044917;28;20093;-73
2022/07/05 10:20:37;;;;;;;2.65;0.80;;;26.40;84.30;;;;;;5046698;28;20056;-67
2022/07/05 10:23:04;;;;;;;0.90;0.70;;;26.30;85.40;;;;;;5045240;28;20098;-66
2022/07/05 10:25:30;;;;;;;1.17;1.08;;;26.10;85.50;;;;;;5053045;28;20028;-68
2022/07/05 10:27:58;;;;;;;1.52;1.10;;;25.90;86.00;;;;;;5051498;28;20036;-75
2022/07/05 10:30:25;;;;;;;14.60;1.08;;;25.70;87.50;;;;;;5042836;28;20036;-69
2022/07/05 10:32:51;;;;;;;5.50;1.38;;;25.60;87.60;;;;;;5043790;28;20110;-68
2022/07/05 10:35:17;;;;;;;1.50;0.80;;;25.60;89.00;;;;;;5049683;28;20043;-67
2022/07/05 10:37:44;;;;;;;6.60;0.98;;;25.50;88.60;;;;;;5052710;28;20081;-67
2022/07/05 10:40:10;;;;;;;2.50;0.75;;;25.50;90.20;;;;;;5050069;28;20033;-67
2022/07/05 10:42:41;;;;;;;3.50;1.00;;;25.40;90.40;;;;;;5048776;28;20037;-67
2022/07/05 10:45:27;;;;;;;1.13;1.03;;;25.30;90.50;;;;;;5051450;28;20485;-66
2022/07/05 10:48:21;;;;;;;2.10;0.80;;;25.20;90.30;;;;;;5028415;28;20140;-67
2022/07/05 10:51:03;;;;;;;2.17;1.23;;;25.10;90.60;;;;;;5027811;28;20136;-67
2022/07/05 10:53:55;;;;;;;1.73;0.88;;;25.00;91.60;;;;;;5026127;28;20559;-67
2022/07/05 10:56:20;;;;;;;2.28;0.88;;;24.70;92.10;;;;;;5040403;28;20070;-67
2022/07/05 10:58:47;;;;;;;2.05;0.90;;;24.40;92.60;;;;;;5035810;28;20040;-68
2022/07/05 11:01:19;;;;;;;1.52;1.10;;;24.10;92.30;;;;;;5033959;28;20358;-69
2022/07/05 11:03:52;;;;;;;3.20;0.90;;;24.00;92.70;;;;;;5042589;28;20606;-68
2022/07/05 11:06:26;;;;;;;5.90;1.05;;;24.00;92.70;;;;;;5036865;28;20048;-71
2022/07/05 11:09:02;;;;;;;5.15;0.90;;;24.00;92.90;;;;;;5025425;28;20087;-70
2022/07/05 11:11:29;;;;;;;3.00;1.27;;;24.00;94.80;;;;;;5028821;28;20032;-69
2022/07/05 11:13:58;;;;;;;1.98;1.17;;;23.80;95.50;;;;;;5043912;28;20079;-73
2022/07/05 11:16:26;;;;;;;1.95;1.00;;;23.70;96.70;;;;;;5049925;28;20074;-73
2022/07/05 11:19:03;;;;;;;2.47;1.13;;;23.70;98.60;;;;;;5049749;28;20045;-72
2022/07/05 11:21:29;;;;;;;2.05;1.17;;;23.20;99.60;;;;;;5051662;28;20056;-73
2022/07/05 11:24:25;;;;;;;3.28;1.15;;;23.00;99.90;;;;;;5051521;28;20115;-73
2022/07/05 11:26:52;;;;;;;3.35;1.30;;;23.00;99.50;;;;;;5036565;28;20105;-73
2022/07/05 11:29:41;;;;;;;6.20;1.33;;;23.10;99.80;;;;;;5047539;28;20028;-73
2022/07/05 11:32:09;;;;;;;2.25;1.20;;;23.20;99.90;;;;;;5049328;28;20832;-73
2022/07/05 11:34:36;;;;;;;1.08;0.73;;;23.10;98.30;;;;;;5044725;28;20182;-75
2022/07/05 11:37:14;;;;;;;1.42;1.20;;;23.10;98.20;;;;;;5047397;28;20123;-73
2022/07/05 11:39:45;;;;;;;1.55;0.80;;;23.10;97.40;;;;;;5044081;28;20177;-73
2022/07/05 11:42:18;;;;;;;1.02;0.90;;;23.10;97.40;;;;;;5045060;28;20952;-70
2022/07/05 11:44:49;;;;;;;1.17;1.00;;;23.10;97.60;;;;;;5043524;28;20173;-72
2022/07/05 11:47:19;;;;;;;3.15;1.08;;;23.00;97.10;;;;;;5041382;28;20394;-71
2022/07/05 11:49:55;;;;;;;0.73;0.73;;;23.00;97.90;;;;;;5041291;28;20503;-73
2022/07/05 11:52:28;;;;;;;1.35;0.70;;;22.90;97.70;;;;;;5041201;28;20064;-75
2022/07/05 11:54:56;;;;;;;2.25;0.98;;;22.70;98.00;;;;;;5042264;28;20164;-70
2022/07/05 11:57:23;;;;;;;1.27;1.00;;;22.60;99.90;;;;;;5025060;28;20043;-72
2022/07/05 11:59:49;;;;;;;1.92;1.15;;;22.60;99.90;;;;;;5047147;28;20067;-72
2022/07/05 12:02:15;;;;;;;1.48;1.02;;;22.50;99.90;;;;;;5044503;28;20048;-72
2022/07/05 12:04:47;;;;;;;1.85;1.10;;;22.60;99.90;;;;;;5046858;28;20044;-69
2022/07/05 12:07:30;;;;;;;1.02;0.90;;;22.60;99.90;;;;;;5051259;28;20119;-70
2022/07/05 12:12:44;;;;;;;1.10;1.00;;;22.60;99.90;;;;;;5048507;28;20156;-70
2022/07/05 12:15:20;;;;;;;2.03;1.33;;;22.50;99.90;;;;;;5035933;28;20033;-71
2022/07/05 12:17:48;;;;;;;1.13;0.82;;;22.50;99.90;;;;;;5047981;28;21066;-72
2022/07/05 12:20:20;;;;;;;1.65;0.90;;;22.50;99.90;;;;;;5044103;28;20859;-72
2022/07/05 12:22:45;;;;;;;17.73;1.70;;;22.60;99.90;;;;;;5029372;28;20500;-71
2022/07/05 12:25:23;;;;;;;1.58;0.73;;;22.60;99.90;;;;;;5051765;28;20101;-71
2022/07/05 12:27:51;;;;;;;2.55;0.50;;;22.50;99.90;;;;;;5046549;28;20375;-72
2022/07/05 12:30:17;;;;;;;1.65;0.52;;;22.50;99.90;;;;;;5048139;28;20285;-72
2022/07/05 12:33:05;;;;;;;0.50;0.50;;;22.40;99.90;;;;;;5046010;28;20097;-71
2022/07/05 12:35:44;;;;;;;1.55;0.63;;;22.40;99.90;;;;;;5044351;28;20079;-72
2022/07/05 12:38:16;;;;;;;1.52;0.50;;;22.30;99.90;;;;;;5054736;28;20067;-73
2022/07/05 12:40:43;;;;;;;;;;;22.10;99.90;;;;;;5055751;28;20417;-72
2022/07/05 12:43:12;;;;;;;0.65;0.47;;;22.10;99.90;;;;;;5049115;28;19908;-73
2022/07/05 12:45:39;;;;;;;5.25;0.60;;;22.20;99.90;;;;;;5052190;28;20045;-71
2022/07/05 12:48:07;;;;;;;3.53;0.85;;;22.20;99.90;;;;;;5051206;28;20116;-71
2022/07/05 12:50:50;;;;;;;2.78;0.70;;;22.30;99.90;;;;;;5043062;28;20504;-71
2022/07/05 12:58:56;;;;;;;1.67;0.90;;;22.40;99.90;;;;;;5049506;28;20075;-71
2022/07/05 13:01:29;;;;;;;4.43;1.00;;;22.60;99.90;;;;;;5052746;28;20064;-73
2022/07/05 13:04:03;;;;;;;0.90;0.75;;;22.60;99.90;;;;;;5052158;28;20033;-72
2022/07/05 13:06:41;;;;;;;0.90;0.90;;;22.50;99.90;;;;;;5042735;28;20040;-72